sensor_id;sensor_type;location;lat;lon;timestamp;P1;durP1;ratioP1;P2;durP2;ratioP2
51883;SDS011;37915;53.254;6.598;2023-04-26T00:02:10;9.70;;;3.40;;
51883;SDS011;37915;53.254;6.598;2023-04-26T00:04:37;9.80;;;2.55;;
51883;SDS011;37915;53.254;6.598;2023-04-26T00:07:03;8.77;;;2.38;;
51883;SDS011;37915;53.254;6.598;2023-04-26T00:09:28;7.70;;;2.40;;
51883;SDS011;37915;53.254;6.598;2023-04-26T00:11:56;8.20;;;2.53;;
51883;SDS011;37915;53.254;6.598;2023-04-26T00:14:22;5.63;;;2.35;;
51883;SDS011;37915;53.254;6.598;2023-04-26T00:16:48;8.60;;;2.58;;
51883;SDS011;37915;53.254;6.598;2023-04-26T00:19:14;7.97;;;2.72;;
51883;SDS011;37915;53.254;6.598;2023-04-26T00:21:40;9.82;;;2.80;;
51883;SDS011;37915;53.254;6.598;2023-04-26T00:24:06;9.55;;;2.58;;
51883;SDS011;37915;53.254;6.598;2023-04-26T00:26:33;9.82;;;2.40;;
51883;SDS011;37915;53.254;6.598;2023-04-26T00:28:59;9.00;;;2.67;;
51883;SDS011;37915;53.254;6.598;2023-04-26T00:31:26;7.18;;;2.72;;
51883;SDS011;37915;53.254;6.598;2023-04-26T00:33:51;9.13;;;2.47;;
51883;SDS011;37915;53.254;6.598;2023-04-26T00:36:17;6.68;;;2.25;;
51883;SDS011;37915;53.254;6.598;2023-04-26T00:38:46;9.82;;;2.67;;
51883;SDS011;37915;53.254;6.598;2023-04-26T00:41:12;5.57;;;2.75;;
51883;SDS011;37915;53.254;6.598;2023-04-26T00:43:38;8.70;;;2.78;;
51883;SDS011;37915;53.254;6.598;2023-04-26T00:46:08;10.07;;;2.80;;
51883;SDS011;37915;53.254;6.598;2023-04-26T00:48:35;7.90;;;2.53;;
51883;SDS011;37915;53.254;6.598;2023-04-26T00:51:01;5.75;;;2.72;;
51883;SDS011;37915;53.254;6.598;2023-04-26T00:53:29;8.43;;;2.47;;
51883;SDS011;37915;53.254;6.598;2023-04-26T00:55:55;6.80;;;2.65;;
51883;SDS011;37915;53.254;6.598;2023-04-26T00:58:22;8.13;;;2.67;;
51883;SDS011;37915;53.254;6.598;2023-04-26T01:00:49;8.13;;;2.92;;
51883;SDS011;37915;53.254;6.598;2023-04-26T01:03:15;9.43;;;2.58;;
51883;SDS011;37915;53.254;6.598;2023-04-26T01:05:41;8.52;;;2.78;;
51883;SDS011;37915;53.254;6.598;2023-04-26T01:08:08;7.13;;;2.45;;
51883;SDS011;37915;53.254;6.598;2023-04-26T01:10:34;8.05;;;2.38;;
51883;SDS011;37915;53.254;6.598;2023-04-26T01:13:00;6.40;;;2.63;;
51883;SDS011;37915;53.254;6.598;2023-04-26T01:15:27;7.32;;;2.60;;
51883;SDS011;37915;53.254;6.598;2023-04-26T01:17:54;6.45;;;2.70;;
51883;SDS011;37915;53.254;6.598;2023-04-26T01:20:21;7.78;;;2.50;;
51883;SDS011;37915;53.254;6.598;2023-04-26T01:22:48;7.90;;;2.53;;
51883;SDS011;37915;53.254;6.598;2023-04-26T01:25:14;12.30;;;2.53;;
51883;SDS011;37915;53.254;6.598;2023-04-26T01:27:41;11.48;;;2.90;;
51883;SDS011;37915;53.254;6.598;2023-04-26T01:30:07;8.80;;;2.50;;
51883;SDS011;37915;53.254;6.598;2023-04-26T01:32:33;11.75;;;3.60;;
51883;SDS011;37915;53.254;6.598;2023-04-26T01:34:59;9.55;;;2.53;;
51883;SDS011;37915;53.254;6.598;2023-04-26T01:37:25;7.00;;;2.75;;
51883;SDS011;37915;53.254;6.598;2023-04-26T01:39:51;9.60;;;2.42;;
51883;SDS011;37915;53.254;6.598;2023-04-26T01:42:17;6.60;;;2.83;;
51883;SDS011;37915;53.254;6.598;2023-04-26T01:44:43;10.82;;;2.45;;
51883;SDS011;37915;53.254;6.598;2023-04-26T01:47:08;8.32;;;2.80;;
51883;SDS011;37915;53.254;6.598;2023-04-26T01:49:34;8.75;;;2.90;;
51883;SDS011;37915;53.254;6.598;2023-04-26T01:52:00;8.52;;;2.72;;
51883;SDS011;37915;53.254;6.598;2023-04-26T01:54:26;7.28;;;2.50;;
51883;SDS011;37915;53.254;6.598;2023-04-26T01:56:52;9.90;;;2.80;;
51883;SDS011;37915;53.254;6.598;2023-04-26T01:59:18;7.45;;;2.50;;
51883;SDS011;37915;53.254;6.598;2023-04-26T02:01:43;9.13;;;2.47;;
51883;SDS011;37915;53.254;6.598;2023-04-26T02:04:09;8.13;;;2.45;;
51883;SDS011;37915;53.254;6.598;2023-04-26T02:06:35;8.70;;;2.90;;
51883;SDS011;37915;53.254;6.598;2023-04-26T02:09:02;13.32;;;3.33;;
51883;SDS011;37915;53.254;6.598;2023-04-26T02:11:28;8.02;;;2.72;;
51883;SDS011;37915;53.254;6.598;2023-04-26T02:13:54;9.55;;;3.22;;
51883;SDS011;37915;53.254;6.598;2023-04-26T02:16:20;8.18;;;2.67;;
51883;SDS011;37915;53.254;6.598;2023-04-26T02:18:46;10.32;;;2.70;;
51883;SDS011;37915;53.254;6.598;2023-04-26T02:21:15;10.38;;;2.85;;
51883;SDS011;37915;53.254;6.598;2023-04-26T02:23:42;9.70;;;3.65;;
51883;SDS011;37915;53.254;6.598;2023-04-26T02:26:08;8.73;;;3.35;;
51883;SDS011;37915;53.254;6.598;2023-04-26T02:28:33;9.18;;;3.50;;
51883;SDS011;37915;53.254;6.598;2023-04-26T02:31:00;9.05;;;2.70;;
51883;SDS011;37915;53.254;6.598;2023-04-26T02:33:26;7.65;;;2.72;;
51883;SDS011;37915;53.254;6.598;2023-04-26T02:35:52;8.48;;;2.72;;
51883;SDS011;37915;53.254;6.598;2023-04-26T02:38:18;9.63;;;2.75;;
51883;SDS011;37915;53.254;6.598;2023-04-26T02:40:43;9.65;;;2.50;;
51883;SDS011;37915;53.254;6.598;2023-04-26T02:43:09;6.95;;;2.55;;
51883;SDS011;37915;53.254;6.598;2023-04-26T02:45:41;9.88;;;2.33;;
51883;SDS011;37915;53.254;6.598;2023-04-26T02:48:07;6.55;;;2.60;;
51883;SDS011;37915;53.254;6.598;2023-04-26T02:50:33;5.72;;;2.15;;
51883;SDS011;37915;53.254;6.598;2023-04-26T02:52:59;9.95;;;2.65;;
51883;SDS011;37915;53.254;6.598;2023-04-26T02:55:25;9.05;;;2.22;;
51883;SDS011;37915;53.254;6.598;2023-04-26T02:57:51;6.70;;;2.45;;
51883;SDS011;37915;53.254;6.598;2023-04-26T03:00:16;7.60;;;2.08;;
51883;SDS011;37915;53.254;6.598;2023-04-26T03:02:42;9.25;;;2.58;;
51883;SDS011;37915;53.254;6.598;2023-04-26T03:05:08;8.70;;;2.10;;
51883;SDS011;37915;53.254;6.598;2023-04-26T03:07:34;4.55;;;2.10;;
51883;SDS011;37915;53.254;6.598;2023-04-26T03:10:00;8.18;;;2.30;;
51883;SDS011;37915;53.254;6.598;2023-04-26T03:12:26;9.55;;;2.58;;
51883;SDS011;37915;53.254;6.598;2023-04-26T03:14:52;6.93;;;2.45;;
51883;SDS011;37915;53.254;6.598;2023-04-26T03:17:17;8.35;;;2.67;;
51883;SDS011;37915;53.254;6.598;2023-04-26T03:19:43;6.85;;;2.47;;
51883;SDS011;37915;53.254;6.598;2023-04-26T03:22:08;8.77;;;2.10;;
51883;SDS011;37915;53.254;6.598;2023-04-26T03:24:39;7.50;;;2.50;;
51883;SDS011;37915;53.254;6.598;2023-04-26T03:27:08;9.32;;;2.38;;
51883;SDS011;37915;53.254;6.598;2023-04-26T03:29:34;6.43;;;2.60;;
51883;SDS011;37915;53.254;6.598;2023-04-26T03:32:00;7.57;;;2.90;;
51883;SDS011;37915;53.254;6.598;2023-04-26T03:34:26;7.03;;;2.30;;
51883;SDS011;37915;53.254;6.598;2023-04-26T03:36:51;11.35;;;2.28;;
51883;SDS011;37915;53.254;6.598;2023-04-26T03:39:17;7.68;;;2.30;;
51883;SDS011;37915;53.254;6.598;2023-04-26T03:41:43;6.22;;;2.38;;
51883;SDS011;37915;53.254;6.598;2023-04-26T03:44:08;6.80;;;2.38;;
51883;SDS011;37915;53.254;6.598;2023-04-26T03:46:34;7.57;;;2.53;;
51883;SDS011;37915;53.254;6.598;2023-04-26T03:49:00;5.28;;;2.30;;
51883;SDS011;37915;53.254;6.598;2023-04-26T03:51:25;6.10;;;2.67;;
51883;SDS011;37915;53.254;6.598;2023-04-26T03:53:52;8.38;;;2.10;;
51883;SDS011;37915;53.254;6.598;2023-04-26T03:56:18;5.13;;;2.45;;
51883;SDS011;37915;53.254;6.598;2023-04-26T03:58:46;4.88;;;2.50;;
51883;SDS011;37915;53.254;6.598;2023-04-26T04:01:11;6.43;;;2.38;;
51883;SDS011;37915;53.254;6.598;2023-04-26T04:03:37;5.82;;;2.33;;
51883;SDS011;37915;53.254;6.598;2023-04-26T04:06:03;5.45;;;2.10;;
51883;SDS011;37915;53.254;6.598;2023-04-26T04:08:29;7.65;;;2.40;;
51883;SDS011;37915;53.254;6.598;2023-04-26T04:10:55;6.60;;;2.70;;
51883;SDS011;37915;53.254;6.598;2023-04-26T04:13:21;4.78;;;2.10;;
51883;SDS011;37915;53.254;6.598;2023-04-26T04:15:47;8.38;;;2.08;;
51883;SDS011;37915;53.254;6.598;2023-04-26T04:18:13;6.43;;;2.03;;
51883;SDS011;37915;53.254;6.598;2023-04-26T04:20:39;4.07;;;2.08;;
51883;SDS011;37915;53.254;6.598;2023-04-26T04:23:05;5.38;;;2.13;;
51883;SDS011;37915;53.254;6.598;2023-04-26T04:25:32;4.60;;;2.10;;
51883;SDS011;37915;53.254;6.598;2023-04-26T04:27:59;6.38;;;1.90;;
51883;SDS011;37915;53.254;6.598;2023-04-26T04:30:26;4.97;;;1.90;;
51883;SDS011;37915;53.254;6.598;2023-04-26T04:32:53;6.88;;;2.20;;
51883;SDS011;37915;53.254;6.598;2023-04-26T04:35:20;6.28;;;1.85;;
51883;SDS011;37915;53.254;6.598;2023-04-26T04:37:47;7.90;;;2.20;;
51883;SDS011;37915;53.254;6.598;2023-04-26T04:40:14;4.78;;;2.60;;
51883;SDS011;37915;53.254;6.598;2023-04-26T04:42:40;5.70;;;2.10;;
51883;SDS011;37915;53.254;6.598;2023-04-26T04:45:08;7.28;;;2.03;;
51883;SDS011;37915;53.254;6.598;2023-04-26T04:47:34;5.60;;;2.30;;
51883;SDS011;37915;53.254;6.598;2023-04-26T04:50:03;5.97;;;2.10;;
51883;SDS011;37915;53.254;6.598;2023-04-26T04:52:32;8.80;;;2.17;;
51883;SDS011;37915;53.254;6.598;2023-04-26T04:54:58;8.82;;;2.80;;
51883;SDS011;37915;53.254;6.598;2023-04-26T04:57:25;5.80;;;1.98;;
51883;SDS011;37915;53.254;6.598;2023-04-26T04:59:51;8.45;;;2.28;;
51883;SDS011;37915;53.254;6.598;2023-04-26T05:02:17;4.85;;;2.25;;
51883;SDS011;37915;53.254;6.598;2023-04-26T05:04:43;10.05;;;3.10;;
51883;SDS011;37915;53.254;6.598;2023-04-26T05:07:08;9.18;;;2.42;;
51883;SDS011;37915;53.254;6.598;2023-04-26T05:09:34;6.20;;;2.15;;
51883;SDS011;37915;53.254;6.598;2023-04-26T05:12:01;9.32;;;2.13;;
51883;SDS011;37915;53.254;6.598;2023-04-26T05:14:28;9.07;;;2.17;;
51883;SDS011;37915;53.254;6.598;2023-04-26T05:16:54;9.13;;;2.67;;
51883;SDS011;37915;53.254;6.598;2023-04-26T05:19:19;8.07;;;2.30;;
51883;SDS011;37915;53.254;6.598;2023-04-26T05:21:45;6.07;;;2.17;;
51883;SDS011;37915;53.254;6.598;2023-04-26T05:24:11;8.73;;;2.42;;
51883;SDS011;37915;53.254;6.598;2023-04-26T05:26:36;6.68;;;2.47;;
51883;SDS011;37915;53.254;6.598;2023-04-26T05:29:02;6.63;;;2.20;;
51883;SDS011;37915;53.254;6.598;2023-04-26T05:31:28;7.13;;;2.30;;
51883;SDS011;37915;53.254;6.598;2023-04-26T05:33:53;9.00;;;2.53;;
51883;SDS011;37915;53.254;6.598;2023-04-26T05:36:19;6.57;;;2.03;;
51883;SDS011;37915;53.254;6.598;2023-04-26T05:38:45;9.38;;;2.53;;
51883;SDS011;37915;53.254;6.598;2023-04-26T05:41:11;7.50;;;2.03;;
51883;SDS011;37915;53.254;6.598;2023-04-26T05:43:36;7.30;;;2.40;;
51883;SDS011;37915;53.254;6.598;2023-04-26T05:46:02;4.18;;;1.92;;
51883;SDS011;37915;53.254;6.598;2023-04-26T05:48:28;6.43;;;2.22;;
51883;SDS011;37915;53.254;6.598;2023-04-26T05:50:54;9.20;;;2.72;;
51883;SDS011;37915;53.254;6.598;2023-04-26T05:53:20;6.25;;;2.17;;
51883;SDS011;37915;53.254;6.598;2023-04-26T05:55:46;4.07;;;2.25;;
51883;SDS011;37915;53.254;6.598;2023-04-26T05:58:12;5.78;;;2.45;;
51883;SDS011;37915;53.254;6.598;2023-04-26T06:00:37;4.60;;;2.30;;
51883;SDS011;37915;53.254;6.598;2023-04-26T06:03:03;4.53;;;2.30;;
51883;SDS011;37915;53.254;6.598;2023-04-26T06:05:32;5.50;;;2.05;;
51883;SDS011;37915;53.254;6.598;2023-04-26T06:07:59;9.60;;;2.33;;
51883;SDS011;37915;53.254;6.598;2023-04-26T06:10:25;5.80;;;2.42;;
51883;SDS011;37915;53.254;6.598;2023-04-26T06:12:52;5.38;;;2.15;;
51883;SDS011;37915;53.254;6.598;2023-04-26T06:15:18;9.13;;;2.50;;
51883;SDS011;37915;53.254;6.598;2023-04-26T06:17:43;4.03;;;2.20;;
51883;SDS011;37915;53.254;6.598;2023-04-26T06:20:09;6.95;;;2.30;;
51883;SDS011;37915;53.254;6.598;2023-04-26T06:22:35;9.15;;;2.05;;
51883;SDS011;37915;53.254;6.598;2023-04-26T06:25:03;5.32;;;2.30;;
51883;SDS011;37915;53.254;6.598;2023-04-26T06:27:29;5.97;;;2.30;;
51883;SDS011;37915;53.254;6.598;2023-04-26T06:29:55;7.32;;;2.47;;
51883;SDS011;37915;53.254;6.598;2023-04-26T06:32:20;6.53;;;2.17;;
51883;SDS011;37915;53.254;6.598;2023-04-26T06:34:46;5.20;;;2.65;;
51883;SDS011;37915;53.254;6.598;2023-04-26T06:37:12;6.57;;;2.22;;
51883;SDS011;37915;53.254;6.598;2023-04-26T06:39:37;7.30;;;1.95;;
51883;SDS011;37915;53.254;6.598;2023-04-26T06:42:03;5.95;;;2.05;;
51883;SDS011;37915;53.254;6.598;2023-04-26T06:44:29;6.45;;;2.33;;
51883;SDS011;37915;53.254;6.598;2023-04-26T06:46:55;8.85;;;2.15;;
51883;SDS011;37915;53.254;6.598;2023-04-26T06:49:21;8.55;;;2.08;;
51883;SDS011;37915;53.254;6.598;2023-04-26T06:51:48;5.47;;;2.10;;
51883;SDS011;37915;53.254;6.598;2023-04-26T06:54:13;8.82;;;2.85;;
51883;SDS011;37915;53.254;6.598;2023-04-26T06:56:39;8.13;;;2.20;;
51883;SDS011;37915;53.254;6.598;2023-04-26T06:59:06;9.93;;;2.67;;
51883;SDS011;37915;53.254;6.598;2023-04-26T07:01:32;6.80;;;2.35;;
51883;SDS011;37915;53.254;6.598;2023-04-26T07:04:02;5.78;;;2.35;;
51883;SDS011;37915;53.254;6.598;2023-04-26T07:06:31;4.55;;;1.90;;
51883;SDS011;37915;53.254;6.598;2023-04-26T07:08:58;5.35;;;2.15;;
51883;SDS011;37915;53.254;6.598;2023-04-26T07:11:24;5.57;;;2.33;;
51883;SDS011;37915;53.254;6.598;2023-04-26T07:13:50;7.90;;;2.20;;
51883;SDS011;37915;53.254;6.598;2023-04-26T07:16:16;5.32;;;1.73;;
51883;SDS011;37915;53.254;6.598;2023-04-26T07:18:41;8.55;;;2.10;;
51883;SDS011;37915;53.254;6.598;2023-04-26T07:21:07;5.55;;;2.38;;
51883;SDS011;37915;53.254;6.598;2023-04-26T07:23:33;7.53;;;2.30;;
51883;SDS011;37915;53.254;6.598;2023-04-26T07:25:59;8.80;;;2.30;;
51883;SDS011;37915;53.254;6.598;2023-04-26T07:28:31;7.72;;;2.97;;
51883;SDS011;37915;53.254;6.598;2023-04-26T07:30:57;5.85;;;2.40;;
51883;SDS011;37915;53.254;6.598;2023-04-26T07:33:24;6.28;;;2.45;;
51883;SDS011;37915;53.254;6.598;2023-04-26T07:35:57;6.90;;;2.40;;
51883;SDS011;37915;53.254;6.598;2023-04-26T07:38:25;9.35;;;2.85;;
51883;SDS011;37915;53.254;6.598;2023-04-26T07:40:51;7.10;;;2.33;;
51883;SDS011;37915;53.254;6.598;2023-04-26T07:43:17;12.45;;;2.65;;
51883;SDS011;37915;53.254;6.598;2023-04-26T07:45:43;8.88;;;2.28;;
51883;SDS011;37915;53.254;6.598;2023-04-26T07:48:09;5.88;;;2.40;;
51883;SDS011;37915;53.254;6.598;2023-04-26T07:50:36;7.63;;;2.33;;
51883;SDS011;37915;53.254;6.598;2023-04-26T07:53:01;8.23;;;1.95;;
51883;SDS011;37915;53.254;6.598;2023-04-26T07:55:27;7.18;;;1.92;;
51883;SDS011;37915;53.254;6.598;2023-04-26T07:57:53;6.22;;;2.05;;
51883;SDS011;37915;53.254;6.598;2023-04-26T08:00:19;8.30;;;2.40;;
51883;SDS011;37915;53.254;6.598;2023-04-26T08:02:46;6.80;;;2.13;;
51883;SDS011;37915;53.254;6.598;2023-04-26T08:05:12;10.75;;;2.70;;
51883;SDS011;37915;53.254;6.598;2023-04-26T08:07:39;5.82;;;2.15;;
51883;SDS011;37915;53.254;6.598;2023-04-26T08:10:05;8.38;;;2.30;;
51883;SDS011;37915;53.254;6.598;2023-04-26T08:12:32;6.22;;;2.17;;
51883;SDS011;37915;53.254;6.598;2023-04-26T08:14:58;8.15;;;2.15;;
51883;SDS011;37915;53.254;6.598;2023-04-26T08:17:25;7.00;;;2.13;;
51883;SDS011;37915;53.254;6.598;2023-04-26T08:19:51;6.03;;;1.80;;
51883;SDS011;37915;53.254;6.598;2023-04-26T08:22:17;11.18;;;2.58;;
51883;SDS011;37915;53.254;6.598;2023-04-26T08:24:51;8.90;;;2.67;;
51883;SDS011;37915;53.254;6.598;2023-04-26T08:27:19;7.60;;;2.15;;
51883;SDS011;37915;53.254;6.598;2023-04-26T08:29:45;5.15;;;1.90;;
51883;SDS011;37915;53.254;6.598;2023-04-26T08:32:11;6.97;;;2.30;;
51883;SDS011;37915;53.254;6.598;2023-04-26T08:34:37;5.47;;;2.20;;
51883;SDS011;37915;53.254;6.598;2023-04-26T08:37:02;6.88;;;2.08;;
51883;SDS011;37915;53.254;6.598;2023-04-26T08:39:29;8.48;;;2.40;;
51883;SDS011;37915;53.254;6.598;2023-04-26T08:41:55;7.32;;;2.35;;
51883;SDS011;37915;53.254;6.598;2023-04-26T08:44:30;9.75;;;2.78;;
51883;SDS011;37915;53.254;6.598;2023-04-26T08:49:40;7.00;;;1.80;;
51883;SDS011;37915;53.254;6.598;2023-04-26T08:52:17;9.27;;;1.98;;
51883;SDS011;37915;53.254;6.598;2023-04-26T08:54:47;5.60;;;1.50;;
51883;SDS011;37915;53.254;6.598;2023-04-26T08:57:14;4.50;;;1.85;;
51883;SDS011;37915;53.254;6.598;2023-04-26T08:59:41;8.60;;;2.90;;
51883;SDS011;37915;53.254;6.598;2023-04-26T09:02:08;8.63;;;2.17;;
51883;SDS011;37915;53.254;6.598;2023-04-26T09:04:35;5.60;;;2.08;;
51883;SDS011;37915;53.254;6.598;2023-04-26T09:07:02;6.55;;;2.00;;
51883;SDS011;37915;53.254;6.598;2023-04-26T09:09:35;7.22;;;1.95;;
51883;SDS011;37915;53.254;6.598;2023-04-26T09:12:06;5.90;;;1.98;;
51883;SDS011;37915;53.254;6.598;2023-04-26T09:14:33;7.43;;;2.10;;
51883;SDS011;37915;53.254;6.598;2023-04-26T09:16:59;7.43;;;1.90;;
51883;SDS011;37915;53.254;6.598;2023-04-26T09:22:04;5.80;;;1.63;;
51883;SDS011;37915;53.254;6.598;2023-04-26T09:24:46;7.15;;;1.60;;
51883;SDS011;37915;53.254;6.598;2023-04-26T09:27:12;12.35;;;1.70;;
51883;SDS011;37915;53.254;6.598;2023-04-26T09:29:38;8.30;;;2.15;;
51883;SDS011;37915;53.254;6.598;2023-04-26T09:32:04;6.03;;;1.60;;
51883;SDS011;37915;53.254;6.598;2023-04-26T09:34:39;9.43;;;2.22;;
51883;SDS011;37915;53.254;6.598;2023-04-26T09:37:10;8.50;;;2.30;;
51883;SDS011;37915;53.254;6.598;2023-04-26T09:39:38;9.65;;;2.35;;
51883;SDS011;37915;53.254;6.598;2023-04-26T09:42:08;5.30;;;2.05;;
51883;SDS011;37915;53.254;6.598;2023-04-26T09:44:38;7.32;;;1.90;;
51883;SDS011;37915;53.254;6.598;2023-04-26T09:49:44;4.93;;;1.38;;
51883;SDS011;37915;53.254;6.598;2023-04-26T09:52:13;3.63;;;1.40;;
51883;SDS011;37915;53.254;6.598;2023-04-26T09:54:39;5.57;;;1.25;;
51883;SDS011;37915;53.254;6.598;2023-04-26T09:57:10;4.70;;;1.35;;
51883;SDS011;37915;53.254;6.598;2023-04-26T09:59:46;6.78;;;1.80;;
51883;SDS011;37915;53.254;6.598;2023-04-26T10:04:40;8.15;;;1.90;;
51883;SDS011;37915;53.254;6.598;2023-04-26T10:07:08;9.68;;;1.70;;
51883;SDS011;37915;53.254;6.598;2023-04-26T10:09:34;7.05;;;2.05;;
51883;SDS011;37915;53.254;6.598;2023-04-26T10:12:00;8.15;;;1.52;;
51883;SDS011;37915;53.254;6.598;2023-04-26T10:14:27;5.22;;;1.85;;
51883;SDS011;37915;53.254;6.598;2023-04-26T10:16:54;5.07;;;2.10;;
51883;SDS011;37915;53.254;6.598;2023-04-26T10:19:21;5.65;;;1.33;;
51883;SDS011;37915;53.254;6.598;2023-04-26T10:21:47;5.55;;;1.50;;
51883;SDS011;37915;53.254;6.598;2023-04-26T10:24:15;7.20;;;1.90;;
51883;SDS011;37915;53.254;6.598;2023-04-26T10:29:17;3.45;;;1.33;;
51883;SDS011;37915;53.254;6.598;2023-04-26T10:34:29;6.47;;;1.40;;
51883;SDS011;37915;53.254;6.598;2023-04-26T10:39:41;3.58;;;1.40;;
51883;SDS011;37915;53.254;6.598;2023-04-26T10:42:24;7.20;;;1.60;;
51883;SDS011;37915;53.254;6.598;2023-04-26T10:45:25;4.32;;;1.38;;
51883;SDS011;37915;53.254;6.598;2023-04-26T10:48:18;7.45;;;1.83;;
51883;SDS011;37915;53.254;6.598;2023-04-26T10:58:48;4.53;;;1.45;;
51883;SDS011;37915;53.254;6.598;2023-04-26T11:01:31;5.82;;;1.52;;
51883;SDS011;37915;53.254;6.598;2023-04-26T11:06:23;6.70;;;1.70;;
51883;SDS011;37915;53.254;6.598;2023-04-26T11:08:49;5.25;;;1.90;;
51883;SDS011;37915;53.254;6.598;2023-04-26T11:11:15;5.10;;;1.33;;
51883;SDS011;37915;53.254;6.598;2023-04-26T11:13:43;8.10;;;1.65;;
51883;SDS011;37915;53.254;6.598;2023-04-26T11:16:10;3.60;;;1.17;;
51883;SDS011;37915;53.254;6.598;2023-04-26T11:18:40;3.53;;;1.30;;
51883;SDS011;37915;53.254;6.598;2023-04-26T11:21:08;5.45;;;2.03;;
51883;SDS011;37915;53.254;6.598;2023-04-26T11:23:34;4.22;;;1.63;;
51883;SDS011;37915;53.254;6.598;2023-04-26T11:26:01;3.35;;;1.42;;
51883;SDS011;37915;53.254;6.598;2023-04-26T11:28:32;6.10;;;1.48;;
51883;SDS011;37915;53.254;6.598;2023-04-26T11:30:59;3.92;;;1.45;;
51883;SDS011;37915;53.254;6.598;2023-04-26T11:33:28;5.60;;;1.67;;
51883;SDS011;37915;53.254;6.598;2023-04-26T11:35:54;8.10;;;1.52;;
51883;SDS011;37915;53.254;6.598;2023-04-26T11:38:22;6.15;;;2.05;;
51883;SDS011;37915;53.254;6.598;2023-04-26T11:40:52;8.18;;;1.73;;
51883;SDS011;37915;53.254;6.598;2023-04-26T11:43:22;5.95;;;2.03;;
51883;SDS011;37915;53.254;6.598;2023-04-26T11:45:59;5.07;;;1.58;;
51883;SDS011;37915;53.254;6.598;2023-04-26T11:48:26;6.35;;;1.83;;
51883;SDS011;37915;53.254;6.598;2023-04-26T11:50:56;3.75;;;1.60;;
51883;SDS011;37915;53.254;6.598;2023-04-26T11:53:38;5.63;;;1.80;;
51883;SDS011;37915;53.254;6.598;2023-04-26T11:56:18;7.07;;;1.70;;
51883;SDS011;37915;53.254;6.598;2023-04-26T12:01:18;7.18;;;1.60;;
51883;SDS011;37915;53.254;6.598;2023-04-26T12:03:54;6.25;;;1.52;;
51883;SDS011;37915;53.254;6.598;2023-04-26T12:08:51;7.78;;;1.52;;
51883;SDS011;37915;53.254;6.598;2023-04-26T12:11:16;5.00;;;1.67;;
51883;SDS011;37915;53.254;6.598;2023-04-26T12:13:42;5.82;;;1.70;;
51883;SDS011;37915;53.254;6.598;2023-04-26T12:16:11;7.57;;;2.15;;
51883;SDS011;37915;53.254;6.598;2023-04-26T12:18:38;4.10;;;1.63;;
51883;SDS011;37915;53.254;6.598;2023-04-26T12:21:06;6.82;;;1.67;;
51883;SDS011;37915;53.254;6.598;2023-04-26T12:23:39;9.48;;;1.77;;
51883;SDS011;37915;53.254;6.598;2023-04-26T12:26:05;6.18;;;1.67;;
51883;SDS011;37915;53.254;6.598;2023-04-26T12:28:31;6.07;;;1.60;;
51883;SDS011;37915;53.254;6.598;2023-04-26T12:30:57;4.90;;;1.42;;
51883;SDS011;37915;53.254;6.598;2023-04-26T12:33:25;4.22;;;1.45;;
51883;SDS011;37915;53.254;6.598;2023-04-26T12:35:50;4.60;;;1.77;;
51883;SDS011;37915;53.254;6.598;2023-04-26T12:38:19;7.13;;;1.60;;
51883;SDS011;37915;53.254;6.598;2023-04-26T12:40:45;6.60;;;1.75;;
51883;SDS011;37915;53.254;6.598;2023-04-26T12:43:11;4.90;;;1.60;;
51883;SDS011;37915;53.254;6.598;2023-04-26T12:45:37;4.43;;;1.33;;
51883;SDS011;37915;53.254;6.598;2023-04-26T12:48:02;6.10;;;1.70;;
51883;SDS011;37915;53.254;6.598;2023-04-26T12:50:28;5.38;;;1.73;;
51883;SDS011;37915;53.254;6.598;2023-04-26T12:52:54;6.38;;;1.85;;
51883;SDS011;37915;53.254;6.598;2023-04-26T12:55:20;7.60;;;1.42;;
51883;SDS011;37915;53.254;6.598;2023-04-26T12:57:46;6.95;;;1.90;;
51883;SDS011;37915;53.254;6.598;2023-04-26T13:00:15;5.78;;;1.80;;
51883;SDS011;37915;53.254;6.598;2023-04-26T13:02:45;5.78;;;1.65;;
51883;SDS011;37915;53.254;6.598;2023-04-26T13:05:11;4.38;;;1.50;;
51883;SDS011;37915;53.254;6.598;2023-04-26T13:07:37;8.77;;;2.10;;
51883;SDS011;37915;53.254;6.598;2023-04-26T13:10:05;4.80;;;1.75;;
51883;SDS011;37915;53.254;6.598;2023-04-26T13:12:32;5.25;;;1.63;;
51883;SDS011;37915;53.254;6.598;2023-04-26T13:14:58;4.93;;;1.52;;
51883;SDS011;37915;53.254;6.598;2023-04-26T13:17:25;5.45;;;1.58;;
51883;SDS011;37915;53.254;6.598;2023-04-26T13:19:51;8.07;;;1.58;;
51883;SDS011;37915;53.254;6.598;2023-04-26T13:22:17;6.32;;;1.48;;
51883;SDS011;37915;53.254;6.598;2023-04-26T13:24:44;9.77;;;1.65;;
51883;SDS011;37915;53.254;6.598;2023-04-26T13:27:10;4.65;;;1.50;;
51883;SDS011;37915;53.254;6.598;2023-04-26T13:29:37;5.35;;;1.67;;
51883;SDS011;37915;53.254;6.598;2023-04-26T13:32:03;10.48;;;2.15;;
51883;SDS011;37915;53.254;6.598;2023-04-26T13:34:29;7.22;;;1.92;;
51883;SDS011;37915;53.254;6.598;2023-04-26T13:36:55;5.72;;;1.60;;
51883;SDS011;37915;53.254;6.598;2023-04-26T13:39:25;5.32;;;1.60;;
51883;SDS011;37915;53.254;6.598;2023-04-26T13:41:52;4.60;;;1.40;;
51883;SDS011;37915;53.254;6.598;2023-04-26T13:44:18;5.97;;;1.95;;
51883;SDS011;37915;53.254;6.598;2023-04-26T13:46:45;9.60;;;2.22;;
51883;SDS011;37915;53.254;6.598;2023-04-26T13:49:11;6.00;;;1.75;;
51883;SDS011;37915;53.254;6.598;2023-04-26T13:51:38;6.15;;;2.15;;
51883;SDS011;37915;53.254;6.598;2023-04-26T13:54:05;5.50;;;1.90;;
51883;SDS011;37915;53.254;6.598;2023-04-26T13:56:31;5.72;;;1.73;;
51883;SDS011;37915;53.254;6.598;2023-04-26T13:58:58;6.35;;;1.73;;
51883;SDS011;37915;53.254;6.598;2023-04-26T14:01:27;5.43;;;1.90;;
51883;SDS011;37915;53.254;6.598;2023-04-26T14:03:53;5.22;;;2.05;;
51883;SDS011;37915;53.254;6.598;2023-04-26T14:06:20;4.53;;;1.90;;
51883;SDS011;37915;53.254;6.598;2023-04-26T14:08:46;4.75;;;2.05;;
51883;SDS011;37915;53.254;6.598;2023-04-26T14:11:12;4.70;;;1.85;;
51883;SDS011;37915;53.254;6.598;2023-04-26T14:13:39;8.45;;;2.13;;
51883;SDS011;37915;53.254;6.598;2023-04-26T14:16:05;6.10;;;2.33;;
51883;SDS011;37915;53.254;6.598;2023-04-26T14:18:32;5.78;;;2.05;;
51883;SDS011;37915;53.254;6.598;2023-04-26T14:20:58;7.97;;;1.90;;
51883;SDS011;37915;53.254;6.598;2023-04-26T14:23:24;5.43;;;2.08;;
51883;SDS011;37915;53.254;6.598;2023-04-26T14:25:51;9.95;;;1.73;;
51883;SDS011;37915;53.254;6.598;2023-04-26T14:28:17;7.45;;;2.22;;
51883;SDS011;37915;53.254;6.598;2023-04-26T14:30:43;10.75;;;2.45;;
51883;SDS011;37915;53.254;6.598;2023-04-26T14:33:10;8.57;;;1.92;;
51883;SDS011;37915;53.254;6.598;2023-04-26T14:35:37;8.55;;;2.10;;
51883;SDS011;37915;53.254;6.598;2023-04-26T14:38:03;4.65;;;2.05;;
51883;SDS011;37915;53.254;6.598;2023-04-26T14:40:30;4.35;;;1.77;;
51883;SDS011;37915;53.254;6.598;2023-04-26T14:42:56;7.47;;;2.30;;
51883;SDS011;37915;53.254;6.598;2023-04-26T14:45:22;5.97;;;2.17;;
51883;SDS011;37915;53.254;6.598;2023-04-26T14:47:48;5.40;;;2.45;;
51883;SDS011;37915;53.254;6.598;2023-04-26T14:50:14;5.03;;;1.77;;
51883;SDS011;37915;53.254;6.598;2023-04-26T14:52:40;5.95;;;2.03;;
51883;SDS011;37915;53.254;6.598;2023-04-26T14:55:06;6.95;;;1.70;;
51883;SDS011;37915;53.254;6.598;2023-04-26T14:57:32;6.93;;;1.83;;
51883;SDS011;37915;53.254;6.598;2023-04-26T14:59:58;5.00;;;1.85;;
51883;SDS011;37915;53.254;6.598;2023-04-26T15:02:31;5.60;;;2.23;;
51883;SDS011;37915;53.254;6.598;2023-04-26T15:04:57;5.43;;;2.25;;
51883;SDS011;37915;53.254;6.598;2023-04-26T15:07:23;8.35;;;1.92;;
51883;SDS011;37915;53.254;6.598;2023-04-26T15:09:49;4.57;;;2.22;;
51883;SDS011;37915;53.254;6.598;2023-04-26T15:12:15;5.20;;;2.17;;
51883;SDS011;37915;53.254;6.598;2023-04-26T15:14:40;4.28;;;1.63;;
51883;SDS011;37915;53.254;6.598;2023-04-26T15:17:06;5.63;;;1.85;;
51883;SDS011;37915;53.254;6.598;2023-04-26T15:19:32;6.32;;;2.20;;
51883;SDS011;37915;53.254;6.598;2023-04-26T15:21:58;7.47;;;2.17;;